Time;durP1;ratioP1;P1;durP2;ratioP2;P2;SDS_P1;SDS_P2;PMS_P1;PMS_P2;Temp;Humidity;BMP_temperature;BMP_pressure;BME280_temperature;BME280_humidity;BME280_pressure;Samples;Min_cycle;Max_cycle;Signal;HPM_P1;HPM_P2
2023/06/04 00:01:59;;;;;;;7.53;4.20;;;11.80;81.40;;;;;;5099240;27;20087;-83
2023/06/04 00:04:25;;;;;;;9.43;4.40;;;11.70;81.60;;;;;;5082598;28;20399;-84
2023/06/04 00:06:51;;;;;;;8.88;4.72;;;11.70;81.50;;;;;;5099280;27;20039;-83
2023/06/04 00:09:17;;;;;;;10.82;4.22;;;11.60;81.80;;;;;;5116535;28;20027;-82
2023/06/04 00:11:44;;;;;;;6.22;4.20;;;11.70;81.70;;;;;;5115845;27;20051;-82
2023/06/04 00:14:09;;;;;;;9.50;4.90;;;11.60;81.90;;;;;;5133320;28;20054;-83
2023/06/04 00:16:35;;;;;;;9.95;3.97;;;11.60;82.00;;;;;;5082369;28;20035;-84
2023/06/04 00:19:02;;;;;;;7.05;4.30;;;11.50;82.10;;;;;;5099254;28;20126;-83
2023/06/04 00:21:28;;;;;;;8.75;3.75;;;11.50;82.20;;;;;;5116203;28;20047;-82
2023/06/04 00:23:54;;;;;;;7.13;3.05;;;11.60;82.40;;;;;;5116099;28;20448;-82
2023/06/04 00:26:20;;;;;;;7.57;3.20;;;11.50;82.60;;;;;;5116805;27;20045;-82
2023/06/04 00:28:46;;;;;;;10.88;3.80;;;11.60;82.50;;;;;;5120495;27;20532;-82
2023/06/04 00:31:12;;;;;;;7.88;3.55;;;11.60;82.40;;;;;;5120199;27;20040;-84
2023/06/04 00:33:39;;;;;;;6.00;3.67;;;11.60;82.50;;;;;;5120291;27;20043;-83
2023/06/04 00:36:05;;;;;;;8.15;4.00;;;11.60;82.60;;;;;;5120147;27;20031;-83
2023/06/04 00:38:31;;;;;;;9.98;4.40;;;11.60;82.70;;;;;;5102632;27;20043;-81
2023/06/04 00:40:56;;;;;;;10.15;4.93;;;11.60;82.80;;;;;;5086156;27;20399;-82
2023/06/04 00:43:25;;;;;;;11.35;4.85;;;11.60;82.70;;;;;;5120234;27;20099;-82
2023/06/04 00:45:52;;;;;;;9.43;4.70;;;11.60;82.70;;;;;;5087198;27;20047;-84
2023/06/04 00:48:18;;;;;;;8.82;4.55;;;11.60;82.80;;;;;;5119894;27;20483;-82
2023/06/04 00:50:44;;;;;;;9.23;4.15;;;11.50;83.10;;;;;;5119878;27;20036;-83
2023/06/04 00:53:10;;;;;;;10.63;3.58;;;11.50;83.10;;;;;;5103141;27;20038;-83
2023/06/04 00:55:36;;;;;;;10.48;4.05;;;11.50;83.20;;;;;;5089281;28;20050;-82
2023/06/04 00:58:04;;;;;;;6.68;3.67;;;11.60;83.20;;;;;;5082750;28;20479;-83
2023/06/04 01:00:32;;;;;;;6.38;4.07;;;11.50;83.20;;;;;;5082626;28;20039;-83
2023/06/04 01:03:03;;;;;;;7.70;4.15;;;11.60;83.40;;;;;;5116462;28;20096;-83
2023/06/04 01:05:38;;;;;;;7.82;3.75;;;11.50;83.50;;;;;;5099531;28;20043;-83
2023/06/04 01:08:08;;;;;;;9.85;3.85;;;11.50;83.50;;;;;;5099122;28;20046;-83
2023/06/04 01:10:37;;;;;;;9.52;4.40;;;11.50;83.50;;;;;;5098727;28;20052;-83
2023/06/04 01:13:03;;;;;;;8.80;4.32;;;11.50;83.60;;;;;;5081834;28;20040;-82
2023/06/04 01:15:29;;;;;;;9.63;4.32;;;11.40;83.80;;;;;;5098923;28;20039;-82
2023/06/04 01:18:02;;;;;;;9.50;4.05;;;11.40;83.70;;;;;;5082288;28;20166;-83
2023/06/04 01:20:37;;;;;;;8.00;4.25;;;11.40;83.80;;;;;;5098809;28;20040;-82
2023/06/04 01:23:34;;;;;;;9.90;4.68;;;11.30;83.80;;;;;;5099204;28;20384;-83
2023/06/04 01:26:04;;;;;;;7.03;3.53;;;11.40;84.00;;;;;;5098771;28;20043;-82
2023/06/04 01:28:34;;;;;;;4.93;3.33;;;11.40;84.00;;;;;;5128202;27;20117;-82
2023/06/04 01:31:01;;;;;;;8.85;5.03;;;11.30;84.10;;;;;;5119226;27;20039;-83
2023/06/04 01:33:27;;;;;;;9.43;4.45;;;11.40;84.10;;;;;;5119205;27;20031;-81
2023/06/04 01:35:53;;;;;;;8.05;4.25;;;11.40;84.20;;;;;;5101994;27;20172;-82
2023/06/04 01:38:19;;;;;;;10.75;5.00;;;11.30;84.00;;;;;;5118245;27;20035;-82
2023/06/04 01:40:45;;;;;;;12.10;4.80;;;11.30;84.20;;;;;;5102076;27;20077;-84
2023/06/04 01:43:11;;;;;;;10.52;4.82;;;11.20;84.30;;;;;;5118820;27;20039;-81
2023/06/04 01:45:37;;;;;;;12.05;5.03;;;11.20;84.70;;;;;;5135599;27;20042;-83
2023/06/04 01:48:04;;;;;;;9.68;5.25;;;11.20;84.40;;;;;;5102282;27;20048;-83
2023/06/04 01:50:30;;;;;;;9.05;5.07;;;11.10;84.50;;;;;;5118786;27;20498;-83
2023/06/04 01:52:56;;;;;;;11.57;4.22;;;11.10;84.50;;;;;;5136115;27;20414;-82
2023/06/04 01:55:22;;;;;;;8.38;4.50;;;11.00;84.60;;;;;;5101569;27;20035;-83
2023/06/04 01:57:48;;;;;;;11.43;4.53;;;11.00;84.80;;;;;;5101444;27;20077;-83
2023/06/04 02:00:14;;;;;;;7.75;3.95;;;11.00;85.10;;;;;;5135849;27;20458;-82
2023/06/04 02:02:42;;;;;;;11.75;4.65;;;11.00;85.10;;;;;;5117818;27;20039;-84
2023/06/04 02:05:09;;;;;;;8.00;4.55;;;10.90;85.10;;;;;;5118503;27;20069;-82
2023/06/04 02:07:38;;;;;;;10.95;4.70;;;10.80;85.40;;;;;;5135842;27;20108;-84
2023/06/04 02:10:05;;;;;;;8.77;4.30;;;10.80;85.30;;;;;;5085128;27;20128;-83
2023/06/04 02:12:31;;;;;;;10.32;4.40;;;10.80;85.70;;;;;;5118125;27;20557;-83
2023/06/04 02:14:57;;;;;;;12.25;4.70;;;10.70;85.70;;;;;;5118368;27;20118;-84
2023/06/04 02:17:23;;;;;;;7.57;4.15;;;10.70;85.70;;;;;;5084314;27;20117;-83
2023/06/04 02:19:51;;;;;;;9.57;4.28;;;10.70;85.80;;;;;;5083739;27;20046;-83
2023/06/04 02:22:18;;;;;;;9.80;4.63;;;10.70;85.70;;;;;;5118351;27;20064;-83
2023/06/04 02:24:43;;;;;;;10.40;4.45;;;10.70;85.60;;;;;;5117925;27;20050;-82
2023/06/04 02:27:10;;;;;;;13.13;5.03;;;10.60;85.30;;;;;;5101047;27;20039;-83
2023/06/04 02:29:37;;;;;;;8.00;4.68;;;10.60;85.40;;;;;;5117876;27;20050;-82
2023/06/04 02:32:04;;;;;;;7.78;4.03;;;10.60;85.50;;;;;;5100581;27;20039;-83
2023/06/04 02:34:30;;;;;;;8.25;4.45;;;10.60;85.50;;;;;;5117417;27;20533;-83
2023/06/04 02:36:58;;;;;;;11.30;5.15;;;10.60;85.70;;;;;;5117826;27;20047;-84
2023/06/04 02:39:30;;;;;;;10.85;4.88;;;10.60;85.60;;;;;;5117671;27;20031;-83
2023/06/04 02:41:55;;;;;;;8.68;4.63;;;10.60;85.70;;;;;;5134620;27;20039;-84
2023/06/04 02:44:23;;;;;;;9.82;5.78;;;10.70;85.90;;;;;;5117805;27;20105;-81
2023/06/04 02:46:48;;;;;;;7.28;5.10;;;10.70;85.90;;;;;;5118204;27;20138;-83
2023/06/04 02:49:14;;;;;;;12.93;6.43;;;10.70;85.90;;;;;;5101212;27;20122;-82
2023/06/04 02:51:40;;;;;;;11.88;6.90;;;10.80;86.00;;;;;;5117155;27;20501;-83
2023/06/04 02:54:06;;;;;;;12.02;7.80;;;10.80;86.00;;;;;;5101324;27;20039;-83
2023/06/04 02:56:33;;;;;;;17.10;7.65;;;10.80;86.00;;;;;;5101164;27;20505;-83
2023/06/04 02:58:59;;;;;;;11.15;8.27;;;10.80;86.10;;;;;;5101022;27;20035;-83
2023/06/04 03:01:26;;;;;;;14.57;9.00;;;10.80;86.10;;;;;;5117725;27;20096;-82
2023/06/04 03:04:15;;;;;;;15.23;8.43;;;10.80;86.40;;;;;;5134545;27;20074;-83
2023/06/04 03:06:46;;;;;;;13.05;7.63;;;10.80;86.40;;;;;;5134007;27;20525;-82
2023/06/04 03:09:12;;;;;;;14.55;10.25;;;10.80;86.30;;;;;;5133559;27;20058;-83
2023/06/04 03:11:37;;;;;;;17.00;9.60;;;10.80;86.50;;;;;;5116260;27;20086;-83
2023/06/04 03:14:03;;;;;;;13.30;10.10;;;10.90;86.60;;;;;;5100277;27;20521;-83
2023/06/04 03:16:29;;;;;;;21.90;11.68;;;10.90;86.80;;;;;;5099770;27;20039;-83
2023/06/04 03:18:56;;;;;;;17.45;11.70;;;10.80;86.70;;;;;;5116620;27;20042;-84
2023/06/04 03:21:22;;;;;;;17.63;9.02;;;10.80;86.60;;;;;;5100196;27;20043;-84
2023/06/04 03:23:48;;;;;;;14.32;10.05;;;10.90;86.60;;;;;;5116612;27;20091;-84
2023/06/04 03:26:13;;;;;;;14.48;10.23;;;10.80;86.70;;;;;;5134366;27;20035;-81
2023/06/04 03:28:40;;;;;;;15.20;9.65;;;10.80;86.70;;;;;;5100274;27;20047;-83
2023/06/04 03:31:06;;;;;;;15.73;10.80;;;10.80;86.80;;;;;;5116622;27;20039;-84
2023/06/04 03:33:31;;;;;;;20.58;10.35;;;10.80;86.90;;;;;;5099811;27;20117;-83
2023/06/04 03:35:58;;;;;;;16.55;9.85;;;10.80;87.00;;;;;;5099866;27;20035;-82
2023/06/04 03:38:24;;;;;;;14.98;9.60;;;10.80;87.10;;;;;;5083372;27;20031;-82
2023/06/04 03:40:52;;;;;;;13.02;8.07;;;10.80;87.00;;;;;;5101139;27;20043;-82
2023/06/04 03:43:18;;;;;;;14.25;9.82;;;10.80;87.20;;;;;;5100505;27;20137;-81
2023/06/04 03:45:44;;;;;;;15.85;9.63;;;10.70;87.30;;;;;;5084078;27;20417;-82
2023/06/04 03:48:10;;;;;;;14.90;9.55;;;10.80;87.20;;;;;;5109134;27;20035;-82
2023/06/04 03:50:36;;;;;;;12.55;9.35;;;10.80;87.20;;;;;;5125858;27;20051;-82
2023/06/04 03:53:04;;;;;;;12.80;8.07;;;10.80;87.20;;;;;;5142955;27;20049;-81
2023/06/04 03:55:31;;;;;;;13.68;9.93;;;10.80;87.30;;;;;;5142910;27;20027;-83
2023/06/04 03:57:58;;;;;;;14.40;8.57;;;10.80;87.20;;;;;;5142690;27;20052;-81
2023/06/04 04:00:24;;;;;;;13.32;8.57;;;10.80;87.30;;;;;;5125324;27;20031;-82
2023/06/04 04:02:50;;;;;;;14.02;7.90;;;10.80;87.50;;;;;;5141181;27;20035;-81
2023/06/04 04:05:16;;;;;;;14.88;7.95;;;10.80;87.30;;;;;;5119448;27;20042;-81
2023/06/04 04:07:42;;;;;;;13.40;8.23;;;10.90;87.40;;;;;;5136840;27;20074;-85
2023/06/04 04:10:08;;;;;;;9.52;5.95;;;10.80;87.40;;;;;;5117563;28;20043;-81
2023/06/04 04:12:34;;;;;;;13.63;6.90;;;10.80;87.30;;;;;;5105788;27;20105;-82
2023/06/04 04:15:00;;;;;;;14.65;7.63;;;10.90;87.30;;;;;;5100069;28;20429;-84
2023/06/04 04:17:26;;;;;;;11.98;8.70;;;10.90;87.40;;;;;;5116544;28;20035;-80
2023/06/04 04:19:52;;;;;;;11.32;6.15;;;10.90;87.30;;;;;;5133740;28;20054;-82
2023/06/04 04:22:18;;;;;;;9.30;6.55;;;11.00;87.30;;;;;;5116447;28;20091;-80
2023/06/04 04:24:44;;;;;;;11.77;8.02;;;11.00;87.40;;;;;;5116188;28;20035;-82
2023/06/04 04:27:13;;;;;;;12.27;7.82;;;11.00;87.40;;;;;;5099015;28;20039;-84
2023/06/04 04:29:50;;;;;;;11.27;7.20;;;11.00;87.40;;;;;;5133797;28;20483;-81
2023/06/04 04:32:18;;;;;;;11.23;7.45;;;11.10;87.50;;;;;;5118768;28;20047;-82
2023/06/04 04:34:51;;;;;;;10.02;6.03;;;11.10;87.50;;;;;;5116806;28;20035;-84
2023/06/04 04:37:22;;;;;;;8.67;5.90;;;11.10;87.50;;;;;;5116981;28;20084;-84
2023/06/04 04:39:51;;;;;;;12.07;6.00;;;11.20;87.60;;;;;;5100632;28;20042;-82
2023/06/04 04:42:18;;;;;;;10.00;7.15;;;11.20;87.60;;;;;;5115613;28;20088;-85
2023/06/04 04:44:47;;;;;;;11.05;7.32;;;11.20;87.60;;;;;;5095772;28;20047;-81
2023/06/04 04:47:14;;;;;;;7.03;5.80;;;11.30;87.90;;;;;;5095951;28;20486;-84
2023/06/04 04:49:39;;;;;;;11.65;7.22;;;11.30;87.90;;;;;;5079075;28;20039;-85
2023/06/04 04:52:05;;;;;;;10.77;6.47;;;11.30;87.80;;;;;;5095401;28;20112;-86
2023/06/04 04:54:31;;;;;;;8.77;6.03;;;11.40;87.90;;;;;;5095406;28;20096;-83
2023/06/04 04:56:56;;;;;;;9.55;6.90;;;11.50;87.90;;;;;;5061891;28;20066;-86
2023/06/04 04:59:22;;;;;;;11.63;8.05;;;11.50;87.90;;;;;;5078563;28;20039;-85
2023/06/04 05:01:48;;;;;;;13.70;7.65;;;11.50;88.00;;;;;;5084234;28;20087;-86
2023/06/04 05:04:13;;;;;;;11.40;7.65;;;11.60;88.00;;;;;;5098665;28;20035;-85
2023/06/04 05:06:39;;;;;;;15.82;8.55;;;11.60;88.10;;;;;;5116213;28;20082;-85
2023/06/04 05:09:05;;;;;;;13.50;6.55;;;11.60;88.10;;;;;;5098730;28;20039;-85
2023/06/04 05:11:30;;;;;;;13.05;7.45;;;11.80;88.40;;;;;;5098353;28;20074;-85
2023/06/04 05:13:56;;;;;;;15.95;8.13;;;11.80;88.20;;;;;;5099918;27;20122;-86
2023/06/04 05:16:22;;;;;;;12.35;6.78;;;11.90;88.10;;;;;;5102449;27;20088;-84
2023/06/04 05:18:51;;;;;;;13.05;7.50;;;11.90;88.10;;;;;;5101795;27;20042;-85
2023/06/04 05:21:17;;;;;;;10.10;7.47;;;12.00;88.20;;;;;;5119176;27;20043;-88
2023/06/04 05:23:45;;;;;;;8.80;5.97;;;12.00;88.30;;;;;;5084921;27;20092;-85
2023/06/04 05:26:10;;;;;;;12.25;7.07;;;12.10;88.40;;;;;;5117790;27;20114;-86
2023/06/04 05:28:36;;;;;;;10.90;7.25;;;12.10;88.30;;;;;;5102048;27;20180;-88
2023/06/04 05:31:02;;;;;;;10.55;6.68;;;12.20;88.30;;;;;;5118913;27;20039;-86
2023/06/04 05:33:30;;;;;;;12.93;7.78;;;12.30;88.30;;;;;;5102230;27;20031;-85
2023/06/04 05:35:57;;;;;;;9.02;6.50;;;12.30;88.10;;;;;;5136236;27;20035;-85
2023/06/04 05:38:25;;;;;;;11.13;6.55;;;12.50;88.20;;;;;;5118767;27;20063;-87
2023/06/04 05:40:55;;;;;;;9.05;5.80;;;12.50;88.10;;;;;;5102549;27;20035;-86
2023/06/04 05:43:21;;;;;;;12.93;7.25;;;12.50;88.10;;;;;;5118844;27;20050;-86
2023/06/04 05:45:47;;;;;;;11.52;7.85;;;12.60;88.00;;;;;;5101961;27;20039;-84
2023/06/04 05:48:13;;;;;;;10.90;5.47;;;12.70;88.00;;;;;;5118977;27;20039;-84
2023/06/04 05:50:39;;;;;;;11.43;7.25;;;12.70;87.80;;;;;;5101499;27;20050;-86
2023/06/04 05:53:05;;;;;;;15.85;7.20;;;12.80;87.70;;;;;;5098049;28;20033;-84
2023/06/04 05:55:31;;;;;;;14.07;7.63;;;12.90;87.70;;;;;;5098548;28;20503;-86
2023/06/04 05:57:56;;;;;;;15.32;7.07;;;13.00;87.60;;;;;;5081461;28;20039;-85
2023/06/04 06:00:23;;;;;;;12.55;5.75;;;13.00;87.80;;;;;;5115179;28;20039;-84
2023/06/04 06:02:53;;;;;;;10.88;7.03;;;13.00;87.80;;;;;;5081653;28;20039;-86
2023/06/04 06:05:19;;;;;;;11.52;6.10;;;13.10;87.60;;;;;;5081569;28;20074;-85
2023/06/04 06:07:46;;;;;;;11.23;6.53;;;13.20;87.60;;;;;;5097989;28;20484;-86
2023/06/04 06:10:12;;;;;;;12.82;7.00;;;13.20;87.50;;;;;;5086535;27;20471;-84
2023/06/04 06:12:38;;;;;;;10.02;6.50;;;13.30;87.40;;;;;;5101157;27;20072;-87
2023/06/04 06:15:04;;;;;;;10.02;5.38;;;13.40;87.20;;;;;;5101583;27;20038;-85
2023/06/04 06:17:30;;;;;;;9.93;6.40;;;13.50;87.20;;;;;;5101602;27;20386;-84
2023/06/04 06:19:56;;;;;;;11.15;5.95;;;13.50;87.00;;;;;;5118335;27;20068;-84
2023/06/04 06:22:22;;;;;;;11.10;6.45;;;13.60;86.70;;;;;;5135219;27;20039;-85
2023/06/04 06:24:51;;;;;;;11.68;5.30;;;13.60;86.40;;;;;;5118013;27;20536;-86
2023/06/04 06:27:17;;;;;;;10.82;5.57;;;13.60;86.30;;;;;;5100242;27;20122;-87
2023/06/04 06:29:43;;;;;;;11.32;5.78;;;13.70;86.00;;;;;;5135159;27;20047;-87
2023/06/04 06:32:10;;;;;;;12.45;5.78;;;13.70;85.90;;;;;;5100913;27;20074;-86
2023/06/04 06:34:37;;;;;;;8.65;5.05;;;13.80;85.80;;;;;;5135085;27;20043;-85
2023/06/04 06:37:03;;;;;;;11.18;5.60;;;13.80;85.70;;;;;;5101053;27;20034;-86
2023/06/04 06:39:28;;;;;;;8.85;5.82;;;14.00;85.60;;;;;;5101224;27;20039;-87
2023/06/04 06:41:54;;;;;;;9.18;3.78;;;14.00;85.60;;;;;;5100813;27;20479;-84
2023/06/04 06:44:20;;;;;;;9.85;4.22;;;14.00;85.40;;;;;;5100366;27;20091;-87
2023/06/04 06:46:48;;;;;;;11.23;4.10;;;14.10;85.20;;;;;;5100797;27;20046;-86
2023/06/04 06:49:14;;;;;;;10.50;4.65;;;14.20;85.00;;;;;;5117656;27;20035;-86
2023/06/04 06:51:40;;;;;;;8.88;4.22;;;14.30;84.60;;;;;;5100540;27;20043;-85
2023/06/04 06:54:05;;;;;;;7.82;3.65;;;14.40;84.30;;;;;;5100748;27;20035;-85
2023/06/04 06:56:31;;;;;;;6.63;3.53;;;14.50;84.20;;;;;;5083577;27;20471;-85
2023/06/04 06:58:57;;;;;;;8.48;3.13;;;14.50;83.80;;;;;;5100494;27;20035;-85
2023/06/04 07:01:22;;;;;;;8.93;3.65;;;14.60;83.20;;;;;;5083544;27;20039;-85
2023/06/04 07:03:48;;;;;;;5.55;2.53;;;14.70;82.80;;;;;;5100440;27;20077;-85
2023/06/04 07:06:14;;;;;;;6.40;2.35;;;14.70;82.70;;;;;;5100441;27;20071;-85
2023/06/04 07:08:39;;;;;;;6.22;2.53;;;14.80;82.30;;;;;;5100374;27;20038;-87
2023/06/04 07:11:05;;;;;;;7.00;2.50;;;14.90;81.70;;;;;;5099717;27;20055;-86
2023/06/04 07:13:33;;;;;;;10.02;2.53;;;14.90;80.80;;;;;;5116966;27;20047;-85
2023/06/04 07:15:59;;;;;;;8.60;2.85;;;15.00;80.40;;;;;;5117704;27;20118;-85
2023/06/04 07:18:25;;;;;;;8.13;2.38;;;15.00;80.00;;;;;;5100249;27;20131;-85
2023/06/04 07:20:52;;;;;;;5.30;2.53;;;15.00;79.90;;;;;;5117444;27;20457;-85
2023/06/04 07:23:18;;;;;;;5.00;2.33;;;15.10;79.60;;;;;;5083618;27;20035;-85
2023/06/04 07:25:44;;;;;;;4.70;2.47;;;15.20;79.00;;;;;;5100559;27;20429;-86
2023/06/04 07:28:10;;;;;;;5.43;2.35;;;15.30;78.80;;;;;;5133931;27;20098;-86
2023/06/04 07:30:36;;;;;;;7.78;2.05;;;15.40;78.60;;;;;;5100060;27;20130;-86
2023/06/04 07:33:02;;;;;;;7.90;2.50;;;15.50;77.80;;;;;;5100104;27;20038;-85
2023/06/04 07:35:28;;;;;;;6.07;2.10;;;15.50;77.20;;;;;;5112948;28;20035;-86
2023/06/04 07:37:53;;;;;;;6.20;2.42;;;15.60;76.90;;;;;;5096040;28;20047;-85
2023/06/04 07:40:19;;;;;;;4.53;1.75;;;15.70;76.90;;;;;;5062786;28;20407;-84
2023/06/04 07:42:47;;;;;;;7.18;2.05;;;15.80;76.60;;;;;;5096169;28;20038;-84
2023/06/04 07:45:13;;;;;;;4.72;1.80;;;15.90;76.20;;;;;;5113188;28;20039;-83
2023/06/04 07:47:38;;;;;;;6.32;2.10;;;16.00;75.90;;;;;;5096707;28;20032;-84
2023/06/04 07:50:05;;;;;;;3.20;1.98;;;16.00;75.50;;;;;;5096269;28;20031;-84
2023/06/04 07:52:32;;;;;;;6.70;2.38;;;16.10;75.30;;;;;;5095941;27;20035;-84
2023/06/04 07:54:58;;;;;;;5.03;2.10;;;16.20;74.80;;;;;;5083265;27;20130;-86
2023/06/04 07:57:24;;;;;;;4.40;2.08;;;16.30;74.20;;;;;;5116735;27;20034;-85
2023/06/04 07:59:51;;;;;;;6.30;2.28;;;16.40;73.70;;;;;;5099556;27;20125;-83
2023/06/04 08:02:17;;;;;;;5.22;2.30;;;16.40;73.30;;;;;;5099193;27;20497;-84
2023/06/04 08:04:45;;;;;;;4.50;1.70;;;16.50;72.90;;;;;;5116236;27;20087;-84
2023/06/04 08:07:10;;;;;;;5.15;1.88;;;16.50;72.20;;;;;;5133626;27;20039;-83
2023/06/04 08:09:36;;;;;;;4.63;1.73;;;16.60;71.20;;;;;;5082516;28;20383;-83
2023/06/04 08:12:02;;;;;;;4.75;2.53;;;16.60;71.60;;;;;;5115767;28;20411;-84
2023/06/04 08:14:27;;;;;;;5.00;2.17;;;16.70;70.80;;;;;;5099177;27;20043;-84
2023/06/04 08:16:54;;;;;;;5.95;2.50;;;16.80;70.70;;;;;;5082728;28;20047;-85
2023/06/04 08:19:20;;;;;;;10.30;3.78;;;16.90;70.90;;;;;;5099248;28;20039;-85
2023/06/04 08:21:47;;;;;;;7.55;2.63;;;17.00;71.10;;;;;;5116444;28;20039;-86
2023/06/04 08:24:12;;;;;;;5.10;1.90;;;17.10;71.20;;;;;;5116621;28;20035;-84
2023/06/04 08:26:38;;;;;;;6.40;2.53;;;17.20;70.50;;;;;;5116448;28;20046;-84
2023/06/04 08:29:04;;;;;;;3.33;1.65;;;17.20;69.90;;;;;;5099607;28;20386;-86
2023/06/04 08:31:30;;;;;;;3.95;1.90;;;17.20;69.60;;;;;;5099013;28;20035;-85
2023/06/04 08:33:56;;;;;;;8.57;2.72;;;17.40;69.70;;;;;;5099128;28;20077;-83
2023/06/04 08:36:22;;;;;;;4.47;1.77;;;17.40;69.80;;;;;;5082384;28;20070;-84
2023/06/04 08:38:50;;;;;;;7.30;2.15;;;17.50;69.80;;;;;;5116160;28;20483;-87
2023/06/04 08:41:31;;;;;;;3.47;1.73;;;17.60;69.50;;;;;;5132969;28;20059;-85
2023/06/04 08:43:57;;;;;;;5.68;2.08;;;17.60;68.70;;;;;;5116038;28;20070;-85
2023/06/04 08:46:25;;;;;;;5.45;2.20;;;17.70;68.90;;;;;;5116148;28;20448;-86
2023/06/04 08:48:51;;;;;;;6.25;2.00;;;17.90;69.40;;;;;;5101981;27;20083;-86
2023/06/04 08:51:17;;;;;;;5.10;1.58;;;18.00;68.60;;;;;;5102725;27;20082;-84
2023/06/04 08:53:47;;;;;;;6.07;2.00;;;18.10;68.30;;;;;;5120058;27;20550;-85
2023/06/04 08:56:13;;;;;;;5.40;2.13;;;18.10;68.00;;;;;;5119796;27;20035;-85
2023/06/04 08:58:41;;;;;;;4.15;1.95;;;18.30;68.00;;;;;;5103068;27;20047;-86
2023/06/04 09:01:08;;;;;;;7.35;2.13;;;18.30;67.80;;;;;;5120107;27;20043;-87
2023/06/04 09:03:37;;;;;;;6.13;2.40;;;18.40;66.80;;;;;;5120012;27;20539;-86
2023/06/04 09:06:04;;;;;;;3.72;1.90;;;18.40;66.60;;;;;;5137116;27;20391;-86
2023/06/04 09:08:37;;;;;;;5.88;2.17;;;18.50;66.70;;;;;;5119367;27;20551;-85
2023/06/04 09:11:07;;;;;;;3.25;1.75;;;18.60;66.30;;;;;;5135934;27;20493;-86
2023/06/04 09:13:35;;;;;;;4.03;1.83;;;18.80;66.20;;;;;;5119764;27;20383;-82
2023/06/04 09:16:02;;;;;;;7.07;2.72;;;18.80;65.90;;;;;;5136506;27;20053;-83
2023/06/04 09:18:28;;;;;;;5.70;1.90;;;18.90;65.00;;;;;;5119390;27;20039;-86
2023/06/04 09:21:07;;;;;;;7.20;2.97;;;18.90;64.80;;;;;;5119178;27;20039;-85
2023/06/04 09:23:47;;;;;;;4.93;2.08;;;19.00;64.10;;;;;;5119346;27;20087;-85
2023/06/04 09:26:13;;;;;;;13.00;2.53;;;19.20;63.90;;;;;;5109842;28;20027;-86
2023/06/04 09:28:43;;;;;;;5.05;2.20;;;19.20;63.50;;;;;;5082356;28;20451;-85
2023/06/04 09:31:10;;;;;;;2.85;1.73;;;19.20;62.60;;;;;;5081655;28;20044;-86
2023/06/04 09:33:46;;;;;;;5.05;1.80;;;19.30;62.40;;;;;;5098577;28;20075;-85
2023/06/04 09:36:12;;;;;;;4.28;2.20;;;19.30;62.20;;;;;;5081831;28;20126;-85
2023/06/04 09:38:39;;;;;;;4.18;1.60;;;19.40;61.70;;;;;;5115838;28;20126;-85
2023/06/04 09:41:10;;;;;;;3.80;1.85;;;19.40;61.80;;;;;;5101063;27;20384;-85
2023/06/04 09:43:36;;;;;;;3.38;2.10;;;19.40;60.90;;;;;;5118891;27;20479;-84
2023/06/04 09:46:10;;;;;;;3.35;1.85;;;19.50;59.80;;;;;;5102172;27;20076;-85
2023/06/04 09:48:36;;;;;;;5.25;1.60;;;19.50;60.40;;;;;;5118860;27;20061;-85
2023/06/04 09:51:10;;;;;;;3.72;1.65;;;19.60;60.00;;;;;;5085143;27;20039;-85
2023/06/04 09:53:36;;;;;;;4.22;1.65;;;19.60;59.00;;;;;;5101993;27;20383;-85
2023/06/04 09:56:03;;;;;;;4.28;1.88;;;19.80;59.50;;;;;;5118632;27;20122;-86
2023/06/04 09:58:30;;;;;;;5.82;1.90;;;19.80;59.60;;;;;;5106238;28;20492;-84
2023/06/04 10:01:01;;;;;;;4.78;1.73;;;19.90;58.70;;;;;;5080756;28;20051;-85
2023/06/04 10:03:35;;;;;;;2.33;1.65;;;20.00;58.50;;;;;;5081339;28;20050;-84
2023/06/04 10:06:04;;;;;;;;;;;20.00;59.20;;;;;;5098623;28;20050;-86
2023/06/04 10:08:31;;;;;;;7.93;1.80;;;20.10;58.80;;;;;;5097938;28;19924;-85
2023/06/04 10:11:02;;;;;;;3.58;1.63;;;20.20;59.40;;;;;;5081092;28;20040;-85
2023/06/04 10:13:31;;;;;;;2.25;1.50;;;20.30;57.80;;;;;;5100337;27;20447;-84
2023/06/04 10:15:58;;;;;;;4.93;1.90;;;20.40;58.20;;;;;;5135748;27;20501;-84
2023/06/04 10:18:25;;;;;;;3.30;1.80;;;20.50;57.50;;;;;;5101766;27;20077;-84
2023/06/04 10:20:55;;;;;;;3.17;1.52;;;20.50;57.50;;;;;;5118311;27;20043;-85
2023/06/04 10:23:22;;;;;;;2.85;1.50;;;20.50;55.50;;;;;;5118207;27;20050;-84
2023/06/04 10:25:50;;;;;;;3.22;1.55;;;20.50;55.70;;;;;;5101326;27;20122;-85
2023/06/04 10:28:21;;;;;;;3.55;1.63;;;20.50;55.30;;;;;;5118505;27;20429;-84
2023/06/04 10:30:50;;;;;;;3.20;1.58;;;20.60;55.60;;;;;;5102039;27;20023;-84
2023/06/04 10:33:23;;;;;;;5.65;1.65;;;20.60;55.40;;;;;;5118204;27;20036;-85
2023/06/04 10:35:51;;;;;;;3.28;1.67;;;20.70;54.50;;;;;;5118652;27;20045;-86
2023/06/04 10:38:18;;;;;;;8.43;2.65;;;20.80;55.30;;;;;;5102483;27;20088;-85
2023/06/04 10:40:45;;;;;;;2.75;1.88;;;20.80;55.70;;;;;;5118497;27;20043;-85
2023/06/04 10:43:13;;;;;;;5.10;1.90;;;20.90;54.90;;;;;;5119070;27;20438;-85
2023/06/04 10:45:39;;;;;;;4.25;1.63;;;20.90;54.50;;;;;;5114240;28;20039;-85
2023/06/04 10:48:10;;;;;;;3.03;1.67;;;20.90;54.40;;;;;;5098133;28;20036;-84
2023/06/04 10:50:48;;;;;;;2.55;1.70;;;21.10;55.20;;;;;;5098493;28;20124;-82
2023/06/04 10:53:14;;;;;;;4.13;1.90;;;21.30;54.70;;;;;;5097724;28;20049;-83
2023/06/04 10:55:44;;;;;;;4.38;1.60;;;21.40;53.40;;;;;;5080539;28;20044;-84
2023/06/04 10:58:10;;;;;;;11.95;2.63;;;21.50;53.70;;;;;;5097682;28;20067;-84
2023/06/04 11:00:36;;;;;;;4.72;1.60;;;21.60;54.30;;;;;;5063708;28;20074;-83
2023/06/04 11:03:03;;;;;;;2.92;1.60;;;21.70;53.50;;;;;;5096984;28;20032;-83
2023/06/04 11:05:43;;;;;;;4.47;1.88;;;21.90;53.10;;;;;;5097190;28;20040;-84
2023/06/04 11:08:10;;;;;;;4.70;1.75;;;21.90;53.00;;;;;;5097035;28;20074;-84
2023/06/04 11:10:42;;;;;;;3.55;1.63;;;21.90;53.00;;;;;;5096747;28;20039;-84
2023/06/04 11:13:08;;;;;;;6.47;2.15;;;22.00;52.10;;;;;;5096917;28;20051;-83
2023/06/04 11:15:52;;;;;;;6.22;1.92;;;22.00;52.20;;;;;;5080110;28;20032;-84
2023/06/04 11:18:20;;;;;;;3.58;1.92;;;22.20;50.70;;;;;;5096994;27;20035;-84
2023/06/04 11:20:58;;;;;;;6.45;2.22;;;22.20;49.80;;;;;;5116945;27;20038;-83
2023/06/04 11:23:24;;;;;;;3.50;1.70;;;22.20;50.10;;;;;;5117324;27;20031;-83
2023/06/04 11:25:52;;;;;;;2.78;1.60;;;22.30;49.80;;;;;;5100319;27;20058;-85
2023/06/04 11:28:18;;;;;;;3.17;1.52;;;22.40;49.20;;;;;;5116782;27;20135;-85
2023/06/04 11:30:57;;;;;;;3.25;1.98;;;22.40;49.60;;;;;;5082680;27;20529;-84
2023/06/04 11:33:23;;;;;;;3.17;1.63;;;22.40;48.50;;;;;;5098871;27;20049;-85
2023/06/04 11:35:49;;;;;;;2.60;1.48;;;22.40;49.90;;;;;;5099726;27;20027;-85
2023/06/04 11:38:14;;;;;;;4.75;1.67;;;22.40;48.40;;;;;;5116804;27;20035;-83
2023/06/04 11:40:42;;;;;;;2.17;1.30;;;22.50;50.00;;;;;;5099829;27;20479;-85
2023/06/04 11:43:10;;;;;;;4.50;1.70;;;22.60;50.40;;;;;;5100264;27;20054;-83
2023/06/04 11:45:37;;;;;;;3.95;1.73;;;22.90;50.20;;;;;;5117175;27;20035;-85
2023/06/04 11:48:05;;;;;;;3.08;1.88;;;23.00;49.90;;;;;;5099697;27;20046;-85
2023/06/04 11:50:31;;;;;;;4.95;1.90;;;23.10;48.90;;;;;;5133175;27;20035;-84
2023/06/04 11:52:57;;;;;;;3.95;1.73;;;23.20;48.70;;;;;;5116620;27;20043;-84
2023/06/04 11:55:24;;;;;;;3.78;2.10;;;23.30;47.70;;;;;;5099840;27;20141;-85
2023/06/04 11:57:50;;;;;;;2.75;1.95;;;23.30;47.10;;;;;;5116372;27;20125;-85
2023/06/04 12:00:17;;;;;;;4.63;1.88;;;23.40;47.10;;;;;;5082723;27;20041;-83
2023/06/04 12:02:56;;;;;;;3.78;2.25;;;23.40;47.50;;;;;;5116313;27;20100;-84
2023/06/04 12:05:28;;;;;;;4.00;2.28;;;23.40;47.20;;;;;;5116350;27;20460;-84
2023/06/04 12:08:09;;;;;;;4.35;2.00;;;23.40;47.90;;;;;;5116644;27;20464;-86
2023/06/04 12:10:42;;;;;;;5.75;2.30;;;23.50;47.50;;;;;;5116862;28;20043;-85
2023/06/04 12:13:15;;;;;;;3.25;1.77;;;23.60;48.00;;;;;;5116174;27;20043;-86
2023/06/04 12:15:40;;;;;;;4.22;1.95;;;23.60;47.20;;;;;;5116186;27;20529;-87
2023/06/04 12:18:06;;;;;;;2.67;1.60;;;23.70;47.20;;;;;;5082360;28;20039;-86
2023/06/04 12:20:33;;;;;;;3.38;1.73;;;23.80;47.30;;;;;;5099299;28;20132;-85
2023/06/04 12:22:59;;;;;;;3.15;1.65;;;23.70;47.60;;;;;;5098420;28;20479;-84
2023/06/04 12:25:26;;;;;;;9.25;2.35;;;23.90;47.90;;;;;;5101023;28;20054;-84
2023/06/04 12:27:52;;;;;;;5.45;2.03;;;24.00;47.40;;;;;;5116700;28;20501;-85
2023/06/04 12:30:17;;;;;;;4.85;2.08;;;24.00;48.20;;;;;;5099462;28;20032;-86
2023/06/04 12:32:45;;;;;;;1.88;1.40;;;24.10;47.90;;;;;;5099134;28;20043;-84
2023/06/04 12:35:11;;;;;;;4.57;2.00;;;24.20;47.80;;;;;;5115993;28;20208;-86
2023/06/04 12:37:36;;;;;;;3.10;1.70;;;24.20;48.00;;;;;;5115619;28;20501;-86
2023/06/04 12:40:04;;;;;;;3.22;1.70;;;24.20;47.80;;;;;;5099341;28;20035;-84
2023/06/04 12:42:30;;;;;;;4.57;1.85;;;24.30;48.80;;;;;;5099093;28;20089;-84
2023/06/04 12:44:56;;;;;;;6.90;2.15;;;24.30;48.60;;;;;;5098833;28;20066;-84